Time;durP1;ratioP1;P1;durP2;ratioP2;P2;SDS_P1;SDS_P2;PMS_P1;PMS_P2;Temp;Humidity;BMP_temperature;BMP_pressure;BME280_temperature;BME280_humidity;BME280_pressure;Samples;Min_cycle;Max_cycle;Signal;HPM_P1;HPM_P2
2023/12/02 00:00:54;;;;;;;27.77;15.52;;;0.10;99.90;;;;;;5044693;28;20037;-75
2023/12/02 00:03:19;;;;;;;32.25;16.08;;;0.40;99.90;;;;;;5065295;28;20032;-75
2023/12/02 00:05:45;;;;;;;30.00;15.40;;;0.00;99.90;;;;;;5039689;28;20218;-76
2023/12/02 00:08:10;;;;;;;29.77;15.82;;;0.10;99.90;;;;;;5071835;28;20032;-76
2023/12/02 00:10:36;;;;;;;30.42;15.32;;;0.00;99.90;;;;;;5028032;28;20033;-76
2023/12/02 00:13:01;;;;;;;28.40;15.23;;;0.10;99.90;;;;;;5043782;28;20043;-76
2023/12/02 00:15:27;;;;;;;29.98;16.60;;;0.00;99.90;;;;;;5021993;28;20041;-76
2023/12/02 00:17:54;;;;;;;28.00;14.68;;;0.00;99.90;;;;;;5046941;28;20095;-76
2023/12/02 00:20:19;;;;;;;29.77;15.90;;;0.00;99.90;;;;;;5030264;28;20045;-76
2023/12/02 00:22:46;;;;;;;31.63;15.93;;;0.60;99.90;;;;;;5066566;28;20064;-76
2023/12/02 00:25:11;;;;;;;29.38;16.08;;;0.00;99.90;;;;;;5055006;28;20076;-76
2023/12/02 00:27:37;;;;;;;30.80;15.93;;;0.10;99.90;;;;;;5073063;28;20048;-76
2023/12/02 00:30:03;;;;;;;30.77;16.58;;;0.10;99.90;;;;;;5054636;28;20404;-76
2023/12/02 00:32:29;;;;;;;33.13;17.08;;;0.20;99.90;;;;;;5037921;28;20036;-76
2023/12/02 00:34:55;;;;;;;31.75;16.75;;;0.00;99.90;;;;;;5037369;28;20036;-76
2023/12/02 00:37:21;;;;;;;32.25;16.38;;;0.10;99.90;;;;;;5036895;28;20143;-76
2023/12/02 00:39:46;;;;;;;30.92;15.90;;;0.10;99.90;;;;;;5067854;22;20067;-77
2023/12/02 00:42:12;;;;;;;28.80;15.50;;;0.20;99.90;;;;;;5053371;28;20032;-76
2023/12/02 00:44:37;;;;;;;28.60;15.25;;;0.20;99.90;;;;;;5044512;28;20032;-76
2023/12/02 00:47:03;;;;;;;29.48;14.70;;;0.40;99.90;;;;;;5040068;28;20118;-76
2023/12/02 00:49:29;;;;;;;30.90;15.45;;;0.10;99.90;;;;;;5061263;28;20037;-75
2023/12/02 00:51:54;;;;;;;27.17;14.55;;;0.10;99.90;;;;;;5039670;28;20122;-76
2023/12/02 00:54:20;;;;;;;29.52;15.43;;;0.40;99.90;;;;;;5023697;28;20037;-75
2023/12/02 00:56:45;;;;;;;28.17;14.93;;;0.20;99.90;;;;;;5025975;28;20033;-75
2023/12/02 00:59:11;;;;;;;31.60;16.50;;;0.10;99.90;;;;;;5030765;28;20541;-75
2023/12/02 01:01:36;;;;;;;29.58;15.27;;;0.10;99.90;;;;;;5044812;28;20057;-76
2023/12/02 01:04:02;;;;;;;30.40;15.68;;;0.10;99.90;;;;;;5045666;28;20457;-75
2023/12/02 01:06:27;;;;;;;29.88;15.52;;;0.10;99.90;;;;;;5024204;28;20473;-75
2023/12/02 01:08:53;;;;;;;31.50;16.08;;;0.10;99.90;;;;;;5021377;28;20375;-76
2023/12/02 01:11:18;;;;;;;32.35;16.58;;;0.10;99.90;;;;;;5047458;28;20045;-75
2023/12/02 01:13:44;;;;;;;31.98;17.25;;;0.10;99.90;;;;;;5028160;28;20048;-75
2023/12/02 01:16:10;;;;;;;30.52;16.45;;;0.10;99.90;;;;;;5027251;28;20037;-75
2023/12/02 01:18:35;;;;;;;30.83;15.50;;;0.10;99.90;;;;;;5023749;28;20037;-76
2023/12/02 01:21:01;;;;;;;30.95;15.48;;;0.20;99.90;;;;;;5035698;28;20138;-76
2023/12/02 01:23:26;;;;;;;29.90;16.35;;;0.10;99.90;;;;;;5043123;28;20033;-75
2023/12/02 01:25:52;;;;;;;29.83;15.93;;;0.20;99.90;;;;;;5031680;28;20029;-76
2023/12/02 01:28:17;;;;;;;30.77;16.38;;;0.20;99.90;;;;;;5032972;28;20037;-76
2023/12/02 01:30:43;;;;;;;32.17;16.33;;;0.10;99.90;;;;;;5046626;28;20038;-75
2023/12/02 01:33:08;;;;;;;32.83;17.15;;;0.10;99.90;;;;;;5047212;28;20393;-75
2023/12/02 01:35:34;;;;;;;32.13;16.10;;;0.10;99.90;;;;;;5017755;28;20401;-75
2023/12/02 01:37:59;;;;;;;34.92;16.52;;;0.10;99.90;;;;;;5038379;28;20060;-76
2023/12/02 01:40:25;;;;;;;33.58;16.27;;;0.10;99.90;;;;;;5016538;28;20120;-75
2023/12/02 01:42:50;;;;;;;30.55;15.70;;;0.30;99.90;;;;;;5027182;28;20037;-75
2023/12/02 01:45:16;;;;;;;31.27;16.60;;;0.10;99.90;;;;;;5015888;28;20041;-76
2023/12/02 01:47:43;;;;;;;31.02;15.70;;;0.10;99.90;;;;;;5025908;28;20409;-76
2023/12/02 01:50:09;;;;;;;33.13;17.50;;;0.10;99.90;;;;;;5014281;28;20132;-76
2023/12/02 01:52:35;;;;;;;31.70;16.58;;;0.10;99.90;;;;;;5018300;28;20049;-75
2023/12/02 01:55:02;;;;;;;33.20;16.85;;;0.10;99.90;;;;;;5028068;28;20517;-76
2023/12/02 01:57:28;;;;;;;30.25;15.65;;;0.10;99.90;;;;;;5017339;28;20053;-76
2023/12/02 01:59:55;;;;;;;29.65;16.17;;;0.10;99.90;;;;;;5031678;28;20041;-77
2023/12/02 02:02:21;;;;;;;35.58;17.20;;;0.10;99.90;;;;;;5033851;28;20056;-76
2023/12/02 02:04:48;;;;;;;31.00;15.90;;;0.10;99.90;;;;;;5045888;28;20037;-76
2023/12/02 02:07:13;;;;;;;30.85;17.13;;;0.10;99.90;;;;;;5028249;28;20046;-75
2023/12/02 02:09:49;;;;;;;32.45;16.85;;;0.10;99.90;;;;;;5020710;28;20075;-75
2023/12/02 02:12:15;;;;;;;31.90;16.45;;;0.10;99.90;;;;;;5030547;28;20358;-76
2023/12/02 02:14:41;;;;;;;31.73;16.83;;;0.10;99.90;;;;;;5048527;28;20037;-76
2023/12/02 02:17:06;;;;;;;32.58;17.13;;;0.10;99.90;;;;;;5023933;28;20042;-77
2023/12/02 02:19:32;;;;;;;30.75;16.55;;;0.10;99.90;;;;;;5027424;28;20045;-75
2023/12/02 02:21:58;;;;;;;31.45;16.55;;;0.10;99.90;;;;;;5026696;28;20045;-75
2023/12/02 02:24:24;;;;;;;30.85;16.70;;;0.10;99.90;;;;;;5027514;28;20048;-77
2023/12/02 02:26:50;;;;;;;30.27;17.20;;;0.10;99.90;;;;;;5017246;28;20045;-78
2023/12/02 02:29:16;;;;;;;31.83;16.67;;;0.20;99.90;;;;;;5048301;28;20120;-76
2023/12/02 02:31:41;;;;;;;30.02;16.50;;;0.10;99.90;;;;;;5009669;28;20041;-76
2023/12/02 02:34:07;;;;;;;32.88;16.48;;;0.10;99.90;;;;;;5022726;28;20045;-76
2023/12/02 02:36:33;;;;;;;34.35;16.55;;;0.10;99.90;;;;;;5027269;28;20080;-75
2023/12/02 02:38:58;;;;;;;31.45;16.00;;;0.10;99.90;;;;;;5034233;28;20045;-75
2023/12/02 02:41:24;;;;;;;33.75;16.75;;;0.10;99.90;;;;;;5041545;28;20044;-75
2023/12/02 02:43:50;;;;;;;31.23;15.80;;;0.10;99.90;;;;;;5030243;28;20511;-76
2023/12/02 02:46:16;;;;;;;29.85;15.82;;;0.10;99.90;;;;;;5024560;28;20037;-76
2023/12/02 02:48:42;;;;;;;29.63;15.85;;;0.10;99.90;;;;;;5046377;28;20375;-76
2023/12/02 02:51:08;;;;;;;32.78;16.98;;;0.10;99.90;;;;;;5039028;28;20033;-76
2023/12/02 02:53:33;;;;;;;30.27;16.15;;;0.30;99.90;;;;;;5025276;28;20072;-75
2023/12/02 02:55:59;;;;;;;33.22;16.50;;;0.10;99.90;;;;;;5029236;28;20040;-76
2023/12/02 02:58:28;;;;;;;32.17;16.85;;;0.10;99.90;;;;;;5036536;28;20041;-76
2023/12/02 03:00:54;;;;;;;32.67;17.17;;;0.10;99.90;;;;;;5008706;28;20044;-76
2023/12/02 03:03:19;;;;;;;32.20;17.48;;;0.20;99.90;;;;;;5035118;28;20037;-76
2023/12/02 03:05:45;;;;;;;31.20;16.35;;;0.20;99.90;;;;;;5054191;28;20029;-76
2023/12/02 03:08:11;;;;;;;33.72;17.38;;;0.20;99.90;;;;;;5045657;28;20184;-76
2023/12/02 03:10:36;;;;;;;31.83;16.83;;;0.20;99.90;;;;;;5021817;28;20037;-76
2023/12/02 03:13:02;;;;;;;29.80;16.25;;;0.20;99.90;;;;;;5025665;28;20038;-76
2023/12/02 03:15:27;;;;;;;33.10;16.92;;;0.20;99.90;;;;;;5021365;28;20042;-75
2023/12/02 03:17:53;;;;;;;28.70;15.38;;;0.20;99.90;;;;;;5031899;28;20048;-76
2023/12/02 03:20:18;;;;;;;33.13;16.63;;;0.20;99.90;;;;;;5031599;28;20041;-76
2023/12/02 03:22:45;;;;;;;31.45;16.25;;;0.20;99.90;;;;;;5020677;28;20073;-76
2023/12/02 03:25:11;;;;;;;31.90;16.95;;;0.20;99.90;;;;;;5043776;28;20531;-76
2023/12/02 03:27:37;;;;;;;35.05;16.92;;;0.10;99.90;;;;;;5035075;28;20120;-77
2023/12/02 03:30:03;;;;;;;30.73;16.15;;;0.10;99.90;;;;;;5043990;28;20037;-76
2023/12/02 03:32:29;;;;;;;30.80;16.92;;;0.10;99.90;;;;;;5033386;28;20404;-76
2023/12/02 03:34:54;;;;;;;31.02;16.58;;;0.10;99.90;;;;;;5031390;28;20045;-76
2023/12/02 03:37:20;;;;;;;32.33;17.00;;;0.10;99.90;;;;;;5044974;28;20124;-76
2023/12/02 03:39:45;;;;;;;34.30;17.35;;;0.10;99.90;;;;;;5034169;28;20041;-76
2023/12/02 03:42:11;;;;;;;34.58;17.00;;;0.10;99.90;;;;;;5015238;28;20461;-76
2023/12/02 03:44:37;;;;;;;35.50;17.00;;;0.10;99.90;;;;;;5041535;28;20049;-75
2023/12/02 03:47:03;;;;;;;32.20;17.20;;;0.10;99.90;;;;;;5024388;28;20037;-76
2023/12/02 03:49:28;;;;;;;34.60;17.25;;;0.10;99.90;;;;;;5015909;28;20037;-75
2023/12/02 03:51:54;;;;;;;35.15;17.30;;;0.10;99.90;;;;;;5017744;28;20045;-76
2023/12/02 03:54:20;;;;;;;34.10;17.52;;;0.10;99.90;;;;;;5021713;28;20036;-76
2023/12/02 03:56:45;;;;;;;33.88;17.23;;;0.10;99.90;;;;;;5033490;28;20111;-76
2023/12/02 03:59:11;;;;;;;31.65;16.95;;;0.00;99.90;;;;;;5044074;28;20418;-76
2023/12/02 04:01:37;;;;;;;34.15;18.05;;;0.00;99.90;;;;;;5020420;28;20033;-75
2023/12/02 04:04:02;;;;;;;36.33;17.95;;;0.00;99.90;;;;;;5025466;28;20122;-75
2023/12/02 04:06:28;;;;;;;33.90;17.70;;;0.00;99.90;;;;;;5026245;28;20101;-76
2023/12/02 04:08:53;;;;;;;36.25;17.23;;;0.00;99.90;;;;;;5023563;28;20037;-75
2023/12/02 04:11:19;;;;;;;33.83;17.38;;;0.00;99.90;;;;;;5023267;28;20037;-76
2023/12/02 04:13:45;;;;;;;34.88;17.23;;;0.00;99.90;;;;;;5039631;28;20037;-77
2023/12/02 04:16:10;;;;;;;34.03;17.13;;;0.00;99.90;;;;;;5026147;28;20052;-76
2023/12/02 04:18:36;;;;;;;38.33;18.25;;;-0.10;99.90;;;;;;5044364;28;20041;-76
2023/12/02 04:21:05;;;;;;;37.72;17.55;;;-0.10;99.90;;;;;;5018724;28;20052;-76
2023/12/02 04:23:30;;;;;;;35.58;18.67;;;-0.10;99.90;;;;;;5024588;28;20041;-76
2023/12/02 04:25:56;;;;;;;35.22;17.75;;;-0.10;99.90;;;;;;5008684;28;20485;-76
2023/12/02 04:28:22;;;;;;;37.95;17.85;;;0.10;99.90;;;;;;5040815;28;20033;-75
2023/12/02 04:30:47;;;;;;;33.92;17.10;;;-0.10;99.90;;;;;;5034061;28;20083;-75
2023/12/02 04:33:13;;;;;;;39.40;17.45;;;-0.10;99.90;;;;;;5042369;28;20087;-75
2023/12/02 04:35:39;;;;;;;35.40;17.63;;;-0.10;99.90;;;;;;5025096;28;20103;-76
2023/12/02 04:38:04;;;;;;;34.80;17.40;;;-0.10;99.90;;;;;;5051737;28;20041;-76
2023/12/02 04:40:31;;;;;;;36.97;17.70;;;-0.10;99.90;;;;;;5014687;28;20041;-76
2023/12/02 04:42:57;;;;;;;34.30;16.73;;;-0.10;99.90;;;;;;5046534;28;20429;-76
2023/12/02 04:45:22;;;;;;;35.63;17.73;;;-0.10;99.90;;;;;;5021083;28;20041;-77
2023/12/02 04:47:48;;;;;;;37.50;18.55;;;-0.10;99.90;;;;;;5018521;28;20493;-76
2023/12/02 04:50:14;;;;;;;34.97;17.25;;;-0.10;99.90;;;;;;5041402;28;20041;-76
2023/12/02 04:52:39;;;;;;;34.40;17.58;;;0.00;99.90;;;;;;5016810;28;20067;-76
2023/12/02 04:55:06;;;;;;;35.90;17.63;;;0.20;99.90;;;;;;5020521;28;20044;-76
2023/12/02 04:57:32;;;;;;;40.40;17.85;;;0.00;99.90;;;;;;5045151;28;20386;-76
2023/12/02 04:59:57;;;;;;;33.72;17.08;;;0.00;99.90;;;;;;5021204;28;20043;-76
2023/12/02 05:02:23;;;;;;;37.38;18.10;;;0.00;99.90;;;;;;5028137;28;20068;-76
2023/12/02 05:04:49;;;;;;;40.95;18.35;;;0.00;99.90;;;;;;5031847;28;20055;-77
2023/12/02 05:07:15;;;;;;;33.17;17.30;;;0.00;99.90;;;;;;5020572;28;20486;-75
2023/12/02 05:09:40;;;;;;;34.20;17.40;;;0.00;99.90;;;;;;5015467;28;20047;-75
2023/12/02 05:12:07;;;;;;;34.92;18.05;;;0.20;99.90;;;;;;5040904;28;20071;-76
2023/12/02 05:14:33;;;;;;;34.95;17.90;;;0.00;99.90;;;;;;5025328;28;20478;-76
2023/12/02 05:16:59;;;;;;;34.20;16.95;;;0.00;99.90;;;;;;5035117;28;20088;-76
2023/12/02 05:19:25;;;;;;;38.00;18.55;;;0.00;99.90;;;;;;5033653;28;20041;-76
2023/12/02 05:21:50;;;;;;;35.60;17.88;;;-0.10;99.90;;;;;;5025854;28;20045;-76
2023/12/02 05:24:19;;;;;;;34.60;17.23;;;-0.10;99.90;;;;;;5028593;28;20041;-77
2023/12/02 05:26:45;;;;;;;33.10;17.55;;;-0.10;99.90;;;;;;5033779;28;20082;-76
2023/12/02 05:29:11;;;;;;;39.45;19.00;;;0.00;99.90;;;;;;5021231;28;20065;-76
2023/12/02 05:31:39;;;;;;;35.70;17.08;;;-0.10;99.90;;;;;;5030828;28;20048;-76
2023/12/02 05:34:05;;;;;;;37.40;18.33;;;-0.10;99.90;;;;;;5016426;28;20534;-76
2023/12/02 05:36:31;;;;;;;39.10;18.33;;;0.10;99.90;;;;;;5019132;28;20084;-77
2023/12/02 05:38:57;;;;;;;35.30;17.13;;;-0.10;99.90;;;;;;5048142;28;20051;-77
2023/12/02 05:41:22;;;;;;;36.47;17.48;;;-0.10;99.90;;;;;;5034463;28;20494;-76
2023/12/02 05:43:48;;;;;;;37.22;17.52;;;0.00;99.90;;;;;;5022708;28;20037;-76
2023/12/02 05:46:17;;;;;;;35.53;16.90;;;-0.10;99.90;;;;;;5042577;28;20065;-76
2023/12/02 05:48:44;;;;;;;36.88;18.17;;;-0.10;99.90;;;;;;5026139;28;20049;-76
2023/12/02 05:51:09;;;;;;;39.92;17.42;;;-0.20;99.90;;;;;;5012707;28;20497;-76
2023/12/02 05:53:35;;;;;;;38.55;17.88;;;-0.10;99.90;;;;;;5051241;28;20043;-76
2023/12/02 05:56:00;;;;;;;36.03;17.52;;;-0.10;99.90;;;;;;5031791;28;20092;-77
2023/12/02 05:58:26;;;;;;;39.05;18.88;;;0.10;99.90;;;;;;5028652;28;20038;-76
2023/12/02 06:00:52;;;;;;;38.38;18.10;;;-0.10;99.90;;;;;;5032693;28;20533;-76
2023/12/02 06:03:17;;;;;;;33.92;17.10;;;-0.20;99.90;;;;;;5029087;28;20037;-76
2023/12/02 06:05:43;;;;;;;37.88;17.30;;;-0.20;99.90;;;;;;5045615;28;20029;-76
2023/12/02 06:08:08;;;;;;;37.63;17.75;;;-0.20;99.90;;;;;;5017737;28;20050;-76
2023/12/02 06:10:34;;;;;;;37.30;18.08;;;-0.20;99.90;;;;;;5032280;28;20049;-76
2023/12/02 06:13:00;;;;;;;37.25;17.80;;;-0.20;99.90;;;;;;5033295;28;20559;-76
2023/12/02 06:15:25;;;;;;;38.13;17.60;;;-0.20;99.90;;;;;;5016292;28;20121;-76
2023/12/02 06:17:56;;;;;;;38.50;17.48;;;-0.20;99.90;;;;;;5016543;28;20056;-75
2023/12/02 06:20:24;;;;;;;42.78;19.52;;;-0.30;99.90;;;;;;5035036;28;20037;-76
2023/12/02 06:22:50;;;;;;;35.42;17.30;;;-0.30;99.90;;;;;;5024350;28;20072;-76
2023/12/02 06:25:16;;;;;;;38.33;18.00;;;-0.30;99.90;;;;;;5025527;28;20124;-76
2023/12/02 06:27:41;;;;;;;37.50;18.10;;;-0.30;99.90;;;;;;5025303;28;20128;-76
2023/12/02 06:30:08;;;;;;;38.72;18.52;;;-0.20;99.90;;;;;;5036356;28;20056;-76
2023/12/02 06:32:33;;;;;;;38.80;18.80;;;-0.30;99.90;;;;;;5007484;28;20046;-76
2023/12/02 06:34:59;;;;;;;39.50;18.63;;;-0.30;99.90;;;;;;5019573;28;20041;-76
2023/12/02 06:37:24;;;;;;;36.78;17.77;;;-0.30;99.90;;;;;;5021664;28;20037;-76
2023/12/02 06:42:18;;;;;;;37.80;18.25;;;-0.30;99.90;;;;;;5069675;22;20079;-75
2023/12/02 06:44:43;;;;;;;36.97;17.13;;;-0.30;99.90;;;;;;5017186;28;20429;-76
2023/12/02 06:47:09;;;;;;;38.28;18.25;;;-0.30;99.90;;;;;;5023447;28;20040;-75
2023/12/02 06:49:34;;;;;;;38.40;17.80;;;-0.40;99.90;;;;;;5025928;28;20037;-75
2023/12/02 06:52:00;;;;;;;42.10;18.98;;;-0.60;99.90;;;;;;5050594;28;20102;-76
2023/12/02 06:54:26;;;;;;;41.88;20.00;;;-0.50;99.90;;;;;;5016029;28;20072;-76
2023/12/02 06:56:51;;;;;;;38.78;19.08;;;-0.60;99.90;;;;;;5049114;28;20096;-75
2023/12/02 06:59:17;;;;;;;40.60;18.15;;;-0.50;99.90;;;;;;5042454;28;20045;-71
2023/12/02 07:01:44;;;;;;;44.05;20.77;;;-0.40;99.90;;;;;;5065768;28;20050;-72
2023/12/02 07:04:10;;;;;;;42.22;19.75;;;-0.40;99.90;;;;;;5040729;28;20045;-76
2023/12/02 07:06:39;;;;;;;40.22;18.60;;;-0.50;99.90;;;;;;5033154;28;20040;-76
2023/12/02 07:09:05;;;;;;;42.45;18.42;;;-0.40;99.90;;;;;;5052255;28;20041;-77
2023/12/02 07:11:31;;;;;;;44.47;19.17;;;-0.40;99.90;;;;;;5035998;28;20048;-76
2023/12/02 07:13:57;;;;;;;41.90;19.42;;;1.20;99.90;;;;;;5048089;28;20108;-75
2023/12/02 07:16:22;;;;;;;43.05;20.58;;;-0.20;99.90;;;;;;5038990;28;20047;-75
2023/12/02 07:18:48;;;;;;;43.33;19.35;;;-0.50;99.90;;;;;;5051483;28;20033;-76
2023/12/02 07:21:14;;;;;;;46.58;18.88;;;-0.80;99.90;;;;;;5019054;28;20076;-76
2023/12/02 07:23:39;;;;;;;43.53;19.08;;;-0.50;99.90;;;;;;5028185;28;20037;-76
2023/12/02 07:26:05;;;;;;;42.03;19.80;;;-0.40;99.90;;;;;;5025926;28;20390;-77
2023/12/02 07:28:31;;;;;;;43.88;19.92;;;-0.40;99.90;;;;;;5016184;28;20042;-76
2023/12/02 07:30:56;;;;;;;41.72;18.42;;;-0.50;99.90;;;;;;5037952;28;20120;-76
2023/12/02 07:33:23;;;;;;;42.33;18.50;;;-0.50;99.90;;;;;;5036296;28;20417;-76
2023/12/02 07:35:48;;;;;;;41.08;18.92;;;-0.40;99.90;;;;;;5031825;28;20036;-76
2023/12/02 07:38:14;;;;;;;40.28;18.60;;;0.20;99.90;;;;;;5052501;28;20091;-75
2023/12/02 07:40:40;;;;;;;44.97;18.95;;;-0.40;99.90;;;;;;5018916;28;20051;-76
2023/12/02 07:43:05;;;;;;;39.85;18.92;;;1.30;99.90;;;;;;5051159;28;20084;-76
2023/12/02 07:45:31;;;;;;;40.28;18.30;;;-0.50;99.90;;;;;;5009669;28;20124;-76
2023/12/02 07:48:01;;;;;;;41.30;18.90;;;2.00;99.90;;;;;;5026943;28;20495;-76
2023/12/02 07:50:27;;;;;;;42.72;19.27;;;-0.40;99.90;;;;;;5025486;28;20489;-76
2023/12/02 07:52:53;;;;;;;39.75;18.88;;;0.80;99.90;;;;;;5022312;28;20068;-76
2023/12/02 07:55:19;;;;;;;41.67;19.05;;;-0.50;99.90;;;;;;5059018;28;20037;-76
2023/12/02 07:57:44;;;;;;;41.92;18.90;;;-0.50;99.90;;;;;;5045450;28;20454;-76
2023/12/02 08:00:11;;;;;;;46.97;20.10;;;-0.50;99.90;;;;;;5036378;28;20431;-76
2023/12/02 08:02:36;;;;;;;40.22;18.85;;;-0.30;99.90;;;;;;5027825;28;20097;-77
2023/12/02 08:05:02;;;;;;;44.17;19.52;;;-0.50;99.90;;;;;;5027205;28;20072;-77
2023/12/02 08:07:28;;;;;;;40.67;18.85;;;-0.40;99.90;;;;;;5024694;28;20036;-76
2023/12/02 08:09:54;;;;;;;40.55;18.65;;;-0.40;99.90;;;;;;5023511;28;20041;-76
2023/12/02 08:12:19;;;;;;;36.25;18.35;;;-0.40;99.90;;;;;;5017200;28;20064;-76
2023/12/02 08:14:45;;;;;;;41.80;18.65;;;1.20;99.90;;;;;;5034410;28;20098;-76
2023/12/02 08:17:10;;;;;;;40.80;18.05;;;-0.50;99.90;;;;;;5025401;28;20033;-76
2023/12/02 08:19:36;;;;;;;40.20;18.30;;;1.50;99.90;;;;;;5046288;28;20044;-76
2023/12/02 08:22:02;;;;;;;39.60;18.80;;;0.90;99.90;;;;;;5021314;28;20040;-75
2023/12/02 08:24:32;;;;;;;40.25;18.63;;;-0.40;99.90;;;;;;5035255;28;20047;-76
2023/12/02 08:26:58;;;;;;;38.17;17.50;;;-0.50;99.90;;;;;;5049324;28;20490;-76
2023/12/02 08:29:24;;;;;;;40.92;19.00;;;1.10;99.90;;;;;;5020371;28;20042;-76
2023/12/02 08:31:52;;;;;;;39.28;18.25;;;-0.10;99.90;;;;;;5037566;28;20053;-76
2023/12/02 08:34:18;;;;;;;39.53;18.90;;;-0.30;99.90;;;;;;5041182;28;20037;-76
2023/12/02 08:36:44;;;;;;;40.95;19.75;;;-0.30;99.90;;;;;;5037727;28;20039;-76
2023/12/02 08:39:10;;;;;;;39.13;18.42;;;-0.30;99.90;;;;;;5037014;28;20029;-76
2023/12/02 08:41:36;;;;;;;42.78;20.00;;;-0.30;99.90;;;;;;5028000;28;20044;-76
2023/12/02 08:44:03;;;;;;;44.17;20.35;;;-0.30;99.90;;;;;;5028243;28;20468;-76
2023/12/02 08:46:29;;;;;;;41.10;19.38;;;0.00;99.90;;;;;;5043528;28;20086;-77
2023/12/02 08:48:57;;;;;;;41.85;18.40;;;-0.20;99.90;;;;;;5036157;28;20045;-77
2023/12/02 08:51:22;;;;;;;43.80;19.10;;;-0.50;99.90;;;;;;5027982;28;20037;-77
2023/12/02 08:53:55;;;;;;;41.72;19.00;;;-0.30;99.90;;;;;;5031087;28;20082;-77
2023/12/02 08:56:21;;;;;;;42.00;19.30;;;-0.30;99.90;;;;;;5019040;28;20033;-77
2023/12/02 08:58:47;;;;;;;41.85;19.17;;;-0.30;99.90;;;;;;5019386;28;20048;-77
2023/12/02 09:01:13;;;;;;;42.35;19.95;;;0.80;99.90;;;;;;5017872;28;20036;-77
2023/12/02 09:03:43;;;;;;;42.28;18.85;;;-0.10;99.90;;;;;;5016079;28;20048;-77
2023/12/02 09:06:09;;;;;;;44.88;20.38;;;1.00;99.90;;;;;;5007099;28;20050;-78
2023/12/02 09:08:37;;;;;;;44.00;19.25;;;-0.20;99.90;;;;;;5017359;28;20090;-78
2023/12/02 09:11:04;;;;;;;41.83;19.77;;;-0.20;99.90;;;;;;5012663;28;20036;-78
2023/12/02 09:13:50;;;;;;;40.85;20.05;;;-0.20;99.90;;;;;;5016953;28;20489;-77
2023/12/02 09:16:29;;;;;;;47.75;20.45;;;-0.10;99.90;;;;;;5032483;28;20049;-76
2023/12/02 09:18:56;;;;;;;42.53;18.52;;;-0.20;99.90;;;;;;5031310;28;20047;-77
2023/12/02 09:21:21;;;;;;;44.38;20.40;;;-0.20;99.90;;;;;;5050222;28;20037;-76
2023/12/02 09:23:48;;;;;;;44.83;20.33;;;0.30;99.90;;;;;;5018606;28;20037;-76
2023/12/02 09:26:25;;;;;;;45.10;19.95;;;-0.10;99.90;;;;;;5032146;28;20047;-76
2023/12/02 09:28:52;;;;;;;48.75;21.45;;;-0.10;99.90;;;;;;5034113;28;20500;-77
2023/12/02 09:31:18;;;;;;;44.60;20.13;;;-0.20;99.90;;;;;;5015407;28;20068;-76
2023/12/02 09:33:45;;;;;;;42.50;19.85;;;0.00;99.90;;;;;;5032495;28;20067;-77
2023/12/02 09:36:36;;;;;;;45.45;21.45;;;-0.20;99.90;;;;;;5015146;28;20037;-76
2023/12/02 09:39:17;;;;;;;46.38;20.65;;;-0.10;99.90;;;;;;5028574;28;20500;-76
2023/12/02 09:41:47;;;;;;;43.38;20.17;;;0.00;99.90;;;;;;5034811;28;20029;-76
2023/12/02 09:44:45;;;;;;;47.80;20.80;;;-0.10;99.90;;;;;;5045565;28;20120;-75
2023/12/02 09:47:21;;;;;;;46.17;21.70;;;0.00;99.90;;;;;;5030334;28;20128;-76
2023/12/02 09:50:09;;;;;;;43.42;20.77;;;0.00;99.90;;;;;;5028306;28;20123;-76
2023/12/02 09:52:53;;;;;;;47.28;21.02;;;-0.10;99.90;;;;;;5022314;28;20543;-76
2023/12/02 09:55:32;;;;;;;48.75;21.13;;;-0.10;99.90;;;;;;5024734;28;20404;-75
2023/12/02 09:58:16;;;;;;;44.90;19.92;;;0.00;99.90;;;;;;5061430;28;20045;-76
2023/12/02 10:01:19;;;;;;;51.38;21.75;;;0.00;99.90;;;;;;5040382;28;20494;-75
2023/12/02 10:03:45;;;;;;;;;;;0.10;99.90;;;;;;5055004;28;20505;-76
2023/12/02 10:06:26;;;;;;;49.17;20.42;;;1.30;99.90;;;;;;5027975;28;19921;-76
2023/12/02 10:08:55;;;;;;;51.75;22.02;;;0.10;99.90;;;;;;5055389;28;20037;-76
2023/12/02 10:11:39;;;;;;;47.17;21.05;;;0.20;99.90;;;;;;5035038;28;20055;-76
2023/12/02 10:14:15;;;;;;;51.90;22.63;;;0.20;99.90;;;;;;5030735;28;20130;-77
2023/12/02 10:16:43;;;;;;;47.33;20.98;;;1.70;99.90;;;;;;5020531;28;20039;-78
2023/12/02 10:19:36;;;;;;;48.22;22.40;;;0.30;99.90;;;;;;5036435;28;20041;-76
2023/12/02 10:22:05;;;;;;;52.35;21.75;;;0.30;99.90;;;;;;5038752;28;20516;-76
2023/12/02 10:24:50;;;;;;;408.02;40.83;;;0.50;99.90;;;;;;5023938;28;20045;-76
2023/12/02 10:27:19;;;;;;;95.88;24.45;;;0.50;99.90;;;;;;5041288;28;20079;-76
2023/12/02 10:29:56;;;;;;;51.75;22.70;;;2.00;99.90;;;;;;5059376;28;20493;-76
2023/12/02 10:32:50;;;;;;;49.40;22.63;;;0.70;99.90;;;;;;5025020;28;20088;-76
2023/12/02 10:35:28;;;;;;;46.53;21.80;;;0.70;99.90;;;;;;5053387;28;20051;-76
2023/12/02 10:38:06;;;;;;;50.95;21.98;;;2.30;99.90;;;;;;5040238;28;20446;-76
2023/12/02 10:40:32;;;;;;;48.58;21.83;;;0.70;99.90;;;;;;5025018;28;20033;-77
2023/12/02 10:43:10;;;;;;;47.85;22.15;;;0.70;99.90;;;;;;5053263;28;20063;-76
2023/12/02 10:45:41;;;;;;;48.13;21.85;;;0.60;99.90;;;;;;5027641;28;20095;-76
2023/12/02 10:48:11;;;;;;;49.88;21.90;;;0.70;99.90;;;;;;5029921;28;20075;-77
2023/12/02 10:50:39;;;;;;;47.55;21.40;;;0.70;99.90;;;;;;5024841;28;20463;-77
2023/12/02 10:53:04;;;;;;;46.60;20.83;;;3.50;99.90;;;;;;5038894;28;20141;-76
2023/12/02 10:55:32;;;;;;;46.55;22.27;;;0.70;99.90;;;;;;5036134;28;20106;-76
2023/12/02 10:58:02;;;;;;;54.03;22.27;;;0.80;99.90;;;;;;5056165;28;20048;-77
2023/12/02 11:00:31;;;;;;;44.53;20.02;;;0.80;99.90;;;;;;5039212;28;20072;-77
2023/12/02 11:03:26;;;;;;;47.20;21.63;;;0.80;99.90;;;;;;5027794;28;20049;-77
2023/12/02 11:06:05;;;;;;;48.88;21.40;;;0.90;99.90;;;;;;5038899;28;20044;-76
2023/12/02 11:09:16;;;;;;;41.78;20.08;;;0.90;99.90;;;;;;5016170;28;20049;-77
2023/12/02 11:11:52;;;;;;;46.75;21.52;;;0.90;99.90;;;;;;4942896;28;20126;-77
2023/12/02 11:14:23;;;;;;;45.88;20.98;;;0.90;99.90;;;;;;5023114;28;20049;-77
2023/12/02 11:17:15;;;;;;;52.13;22.35;;;1.00;99.90;;;;;;5022459;28;20060;-76
2023/12/02 11:19:58;;;;;;;51.33;21.77;;;1.00;99.90;;;;;;5035519;28;20056;-76
2023/12/02 11:22:46;;;;;;;42.72;20.13;;;1.00;99.90;;;;;;5037552;28;20370;-76
2023/12/02 11:25:40;;;;;;;48.80;22.35;;;0.90;99.90;;;;;;5044930;28;20084;-76
2023/12/02 11:28:35;;;;;;;47.25;21.73;;;1.10;99.90;;;;;;5033865;28;20116;-76
2023/12/02 11:31:42;;;;;;;49.88;21.58;;;1.10;99.90;;;;;;5014209;28;20048;-76
2023/12/02 11:34:20;;;;;;;49.55;21.88;;;2.10;99.90;;;;;;5040863;28;20098;-76
2023/12/02 11:37:40;;;;;;;50.92;22.98;;;1.20;99.90;;;;;;5038290;28;20080;-76
2023/12/02 11:40:26;;;;;;;50.15;22.02;;;1.30;99.90;;;;;;4937710;28;20051;-76
2023/12/02 11:43:08;;;;;;;47.83;21.50;;;1.40;99.90;;;;;;5023190;28;20041;-77
2023/12/02 11:45:48;;;;;;;50.70;22.15;;;1.60;99.90;;;;;;5019875;28;20029;-76
2023/12/02 11:48:20;;;;;;;52.28;24.17;;;1.50;99.90;;;;;;5045337;28;20375;-74
2023/12/02 11:51:16;;;;;;;47.05;22.77;;;1.70;99.90;;;;;;5033847;28;20049;-76
2023/12/02 11:54:07;;;;;;;44.40;20.58;;;1.70;99.90;;;;;;5016787;28;20041;-76
2023/12/02 11:56:34;;;;;;;50.30;22.23;;;0.80;99.90;;;;;;5059354;28;20037;-76
2023/12/02 11:59:17;;;;;;;48.83;21.65;;;1.70;99.90;;;;;;5018141;28;20052;-76
2023/12/02 12:02:05;;;;;;;46.78;21.20;;;1.90;99.90;;;;;;5016351;28;20058;-76
2023/12/02 12:04:30;;;;;;;48.33;21.15;;;1.80;99.90;;;;;;5034199;28;20453;-77
2023/12/02 12:07:39;;;;;;;44.25;21.15;;;1.70;99.90;;;;;;5034028;28;20123;-76
2023/12/02 12:10:15;;;;;;;47.08;21.50;;;1.80;99.90;;;;;;5020653;28;20532;-77
2023/12/02 12:12:45;;;;;;;49.33;22.02;;;2.30;99.90;;;;;;5023083;28;20036;-76
2023/12/02 12:15:10;;;;;;;49.90;22.05;;;1.80;99.90;;;;;;5037823;28;20036;-76
2023/12/02 12:17:36;;;;;;;46.10;21.50;;;2.90;99.90;;;;;;5032682;28;20136;-77
2023/12/02 12:20:20;;;;;;;48.33;21.80;;;1.70;99.90;;;;;;5022000;28;20043;-77
2023/12/02 12:22:45;;;;;;;48.78;21.50;;;1.80;99.90;;;;;;5028181;28;20072;-77
2023/12/02 12:25:12;;;;;;;51.15;21.45;;;1.70;99.90;;;;;;5054616;28;20072;-78
2023/12/02 12:27:38;;;;;;;48.83;21.67;;;2.60;99.90;;;;;;5015784;28;20400;-77
2023/12/02 12:30:05;;;;;;;49.97;22.67;;;1.80;99.90;;;;;;5035915;28;20116;-77
2023/12/02 12:32:31;;;;;;;54.30;20.95;;;1.90;99.90;;;;;;5007324;28;20029;-77
2023/12/02 12:34:56;;;;;;;51.28;21.63;;;1.80;99.90;;;;;;5009593;28;20038;-77
2023/12/02 12:37:23;;;;;;;47.28;22.50;;;1.90;99.90;;;;;;5027320;28;20033;-77
2023/12/02 12:39:51;;;;;;;48.38;22.10;;;3.20;99.90;;;;;;5031468;28;20404;-76
2023/12/02 12:42:17;;;;;;;47.40;21.05;;;1.80;99.90;;;;;;5063790;22;20040;-61
2023/12/02 12:44:44;;;;;;;52.85;23.08;;;1.80;99.90;;;;;;5042879;28;20037;-61